Time;durP1;ratioP1;P1;durP2;ratioP2;P2;SDS_P1;SDS_P2;PMS_P1;PMS_P2;Temp;Humidity;BMP_temperature;BMP_pressure;BME280_temperature;BME280_humidity;BME280_pressure;Samples;Min_cycle;Max_cycle;Signal;HPM_P1;HPM_P2
2024/01/25 00:02:23;;;;;;;48.63;33.25;;;8.30;99.90;;;;;;5092864;28;20035;-50
2024/01/25 00:04:49;;;;;;;47.00;31.65;;;8.30;99.90;;;;;;5092821;28;20095;-51
2024/01/25 00:07:14;;;;;;;49.60;34.83;;;8.30;99.90;;;;;;5092580;28;20035;-52
2024/01/25 00:09:40;;;;;;;52.60;35.38;;;8.30;99.90;;;;;;5092862;28;20031;-51
2024/01/25 00:12:06;;;;;;;62.35;39.53;;;8.00;99.90;;;;;;5040099;28;20032;-51
2024/01/25 00:14:32;;;;;;;62.35;41.10;;;8.00;99.90;;;;;;5074301;28;20028;-49
2024/01/25 00:16:58;;;;;;;60.80;38.90;;;8.10;99.90;;;;;;5092411;28;20419;-50
2024/01/25 00:19:24;;;;;;;56.30;35.33;;;8.00;99.90;;;;;;5074239;28;20028;-51
2024/01/25 00:21:49;;;;;;;47.80;32.50;;;8.00;99.90;;;;;;5092496;28;20131;-51
2024/01/25 00:24:15;;;;;;;51.63;34.10;;;8.10;99.90;;;;;;5023337;28;20036;-49
2024/01/25 00:26:41;;;;;;;50.28;34.53;;;8.20;99.90;;;;;;5092157;28;20035;-51
2024/01/25 00:29:06;;;;;;;51.00;31.67;;;8.20;99.90;;;;;;5092069;28;20130;-51
2024/01/25 00:31:32;;;;;;;45.58;29.00;;;7.60;99.90;;;;;;5092285;28;20032;-52
2024/01/25 00:33:58;;;;;;;46.83;31.42;;;7.20;99.90;;;;;;5092482;28;20020;-52
2024/01/25 00:36:25;;;;;;;47.20;30.38;;;7.20;99.90;;;;;;5056100;28;20059;-52
2024/01/25 00:38:51;;;;;;;45.17;30.67;;;;;;;;;;5072890;28;20063;-52
2024/01/25 00:41:21;;;;;;;46.63;31.90;;;7.30;99.90;;;;;;5091989;28;20661;-50
2024/01/25 00:43:47;;;;;;;45.47;32.53;;;7.30;99.90;;;;;;5092014;28;20087;-50
2024/01/25 00:46:14;;;;;;;57.53;33.85;;;7.60;99.90;;;;;;5006201;28;20395;-51
2024/01/25 00:48:42;;;;;;;67.80;39.95;;;7.60;99.90;;;;;;5073495;28;20032;-51
2024/01/25 00:51:15;;;;;;;45.70;30.25;;;7.80;99.90;;;;;;5073505;28;20626;-52
2024/01/25 00:53:41;;;;;;;51.13;32.80;;;7.20;99.90;;;;;;5091764;28;20081;-51
2024/01/25 00:56:07;;;;;;;48.25;33.25;;;7.10;99.90;;;;;;5091635;28;20422;-50
2024/01/25 00:58:33;;;;;;;51.30;36.08;;;7.20;99.90;;;;;;5039558;28;20048;-50
2024/01/25 01:00:59;;;;;;;51.13;35.30;;;6.80;99.90;;;;;;5091360;28;20034;-50
2024/01/25 01:03:26;;;;;;;48.80;33.60;;;;;;;;;;5022368;28;20115;-50
2024/01/25 01:05:52;;;;;;;59.67;37.38;;;;;;;;;;5055586;28;20433;-50
2024/01/25 01:08:18;;;;;;;57.75;36.83;;;;;;;;;;5091311;28;20036;-52
2024/01/25 01:10:44;;;;;;;54.95;37.08;;;;;;;;;;5073299;28;20028;-51
2024/01/25 01:13:10;;;;;;;91.32;51.55;;;;;;;;;;5073116;28;20395;-52
2024/01/25 01:15:36;;;;;;;61.50;39.28;;;;;;;;;;5091411;28;20024;-51
2024/01/25 01:18:03;;;;;;;53.58;35.25;;;;;;;;;;5088131;28;20110;-50
2024/01/25 01:20:29;;;;;;;55.63;38.25;;;7.60;99.90;;;;;;5091517;28;20071;-51
2024/01/25 01:22:54;;;;;;;63.60;42.38;;;7.70;99.90;;;;;;5038990;28;20060;-52
2024/01/25 01:25:20;;;;;;;61.83;41.03;;;7.90;99.90;;;;;;5055099;28;20047;-52
2024/01/25 01:27:46;;;;;;;91.97;59.15;;;;;;;;;;5091380;28;20028;-51
2024/01/25 01:30:12;;;;;;;71.13;47.08;;;8.10;99.90;;;;;;5091028;28;20078;-51
2024/01/25 01:32:38;;;;;;;64.50;44.05;;;8.10;99.90;;;;;;5091106;28;20067;-51
2024/01/25 01:35:04;;;;;;;67.70;42.33;;;8.10;99.90;;;;;;5038688;28;20055;-51
2024/01/25 01:37:29;;;;;;;92.90;58.00;;;8.10;99.90;;;;;;5021719;28;20036;-50
2024/01/25 01:39:55;;;;;;;106.07;60.85;;;8.20;99.90;;;;;;5091042;28;20020;-49
2024/01/25 01:42:22;;;;;;;67.20;41.80;;;8.20;99.90;;;;;;5038490;28;20067;-50
2024/01/25 01:44:50;;;;;;;59.60;39.80;;;8.30;99.90;;;;;;5091004;28;20383;-50
2024/01/25 01:47:16;;;;;;;57.38;36.92;;;;;;;;;;5090512;28;20038;-50
2024/01/25 01:49:43;;;;;;;72.97;45.00;;;;;;;;;;5071809;28;20484;-51
2024/01/25 01:52:09;;;;;;;40.30;29.67;;;;;;;;;;5090849;28;20491;-51
2024/01/25 01:54:36;;;;;;;37.00;25.73;;;;;;;;;;5090981;28;20032;-50
2024/01/25 01:57:02;;;;;;;34.13;23.10;;;;;;;;;;5086025;28;20020;-52
2024/01/25 01:59:29;;;;;;;38.38;26.02;;;;;;;;;;5090918;28;20468;-51
2024/01/25 02:01:55;;;;;;;36.92;25.23;;;;;;;;;;5072029;28;20395;-53
2024/01/25 02:04:21;;;;;;;42.35;26.17;;;;;;;;;;5072534;28;20514;-52
2024/01/25 02:06:48;;;;;;;53.10;30.77;;;8.60;99.90;;;;;;5054793;28;20043;-51
2024/01/25 02:09:13;;;;;;;44.53;27.90;;;8.60;99.90;;;;;;5091222;28;20056;-51
2024/01/25 02:11:39;;;;;;;28.70;18.05;;;;;;;;;;5067506;28;20134;-51
2024/01/25 02:14:06;;;;;;;26.77;17.85;;;8.70;99.90;;;;;;5070089;28;20551;-50
2024/01/25 02:16:32;;;;;;;26.77;18.60;;;8.80;99.90;;;;;;5071747;28;20046;-52
2024/01/25 02:18:58;;;;;;;27.67;17.20;;;;;;;;;;5071937;28;20407;-50
2024/01/25 02:21:24;;;;;;;24.90;16.42;;;8.90;99.90;;;;;;5071846;28;20032;-50
2024/01/25 02:23:50;;;;;;;26.42;17.58;;;9.00;99.90;;;;;;5071829;28;20899;-51
2024/01/25 02:26:16;;;;;;;31.42;21.13;;;9.00;99.90;;;;;;5071735;28;20028;-51
2024/01/25 02:28:42;;;;;;;28.10;19.40;;;9.00;99.90;;;;;;5071526;28;20531;-50
2024/01/25 02:31:08;;;;;;;34.55;19.52;;;;;;;;;;5021826;28;20044;-51
2024/01/25 02:33:34;;;;;;;25.63;16.95;;;;;;;;;;5071537;28;20060;-50
2024/01/25 02:36:00;;;;;;;27.13;18.05;;;;;;;;;;5019971;28;20166;-50
2024/01/25 02:38:26;;;;;;;34.22;19.63;;;;;;;;;;5037591;28;20123;-52
2024/01/25 02:40:55;;;;;;;22.45;14.63;;;;;;;;;;5071378;28;20020;-50
2024/01/25 02:43:22;;;;;;;21.17;14.38;;;;;;;;;;5071508;28;20553;-50
2024/01/25 02:45:48;;;;;;;34.53;20.73;;;;;;;;;;5071161;28;20052;-51
2024/01/25 02:48:15;;;;;;;31.88;20.77;;;;;;;;;;5040793;28;20079;-52
2024/01/25 02:50:41;;;;;;;31.35;21.02;;;;;;;;;;5087227;28;20722;-51
2024/01/25 02:53:07;;;;;;;33.78;22.60;;;;;;;;;;5073976;28;20041;-50
2024/01/25 02:55:33;;;;;;;34.05;23.70;;;;;;;;;;5073678;28;20074;-52
2024/01/25 02:57:59;;;;;;;30.52;20.55;;;;;;;;;;5073709;28;20033;-51
2024/01/25 03:00:25;;;;;;;39.50;27.85;;;;;;;;;;5090493;28;20028;-50
2024/01/25 03:02:51;;;;;;;33.85;23.27;;;;;;;;;;5061749;28;20784;-51
2024/01/25 03:05:17;;;;;;;34.28;22.90;;;;;;;;;;5042472;28;20075;-50
2024/01/25 03:07:43;;;;;;;33.67;23.48;;;;;;;;;;5057629;28;20044;-51
2024/01/25 03:10:09;;;;;;;19.92;13.07;;;8.90;99.90;;;;;;5093723;28;20039;-50
2024/01/25 03:12:35;;;;;;;17.80;12.15;;;8.50;99.90;;;;;;5093634;28;20028;-50
2024/01/25 03:15:01;;;;;;;19.05;11.75;;;8.70;99.90;;;;;;5076313;28;20028;-52
2024/01/25 03:17:26;;;;;;;14.30;10.50;;;8.80;99.90;;;;;;5054490;28;20048;-51
2024/01/25 03:19:52;;;;;;;16.35;10.18;;;8.80;99.90;;;;;;5073176;28;20476;-50
2024/01/25 03:22:18;;;;;;;16.15;10.48;;;8.70;99.90;;;;;;5043566;28;20135;-51
2024/01/25 03:24:44;;;;;;;16.10;10.55;;;8.90;99.90;;;;;;5073034;28;20059;-50
2024/01/25 03:27:13;;;;;;;16.15;11.32;;;9.00;99.90;;;;;;5054273;28;20064;-50
2024/01/25 03:29:42;;;;;;;18.17;10.88;;;9.00;99.90;;;;;;5080318;28;20035;-51
2024/01/25 03:32:08;;;;;;;15.75;11.40;;;9.10;99.90;;;;;;5054991;28;20103;-50
2024/01/25 03:34:33;;;;;;;17.35;11.10;;;9.20;99.90;;;;;;5072875;28;20028;-50
2024/01/25 03:36:59;;;;;;;17.75;11.18;;;9.30;99.90;;;;;;5082655;28;20725;-51
2024/01/25 03:39:25;;;;;;;16.13;10.20;;;;;;;;;;5040504;28;20120;-51
2024/01/25 03:41:51;;;;;;;16.92;11.02;;;;;;;;;;5093293;28;20464;-50
2024/01/25 03:44:17;;;;;;;16.90;10.95;;;;;;;;;;5093188;28;20059;-51
2024/01/25 03:46:43;;;;;;;13.13;9.75;;;;;;;;;;5093453;28;20024;-51
2024/01/25 03:49:09;;;;;;;14.80;9.75;;;;;;;;;;5093382;28;20032;-50
2024/01/25 03:51:37;;;;;;;16.05;10.02;;;;;;;;;;5073740;28;20075;-51
2024/01/25 03:54:02;;;;;;;14.63;9.65;;;9.80;99.30;;;;;;5092833;28;20422;-51
2024/01/25 03:56:28;;;;;;;14.75;9.35;;;9.80;99.50;;;;;;5092875;28;20039;-50
2024/01/25 03:58:54;;;;;;;12.73;8.18;;;9.80;99.40;;;;;;5093018;28;20031;-50
2024/01/25 04:01:19;;;;;;;14.70;8.52;;;9.80;99.90;;;;;;5092781;28;20028;-50
2024/01/25 04:03:45;;;;;;;15.10;8.40;;;9.80;99.90;;;;;;5093242;28;20031;-52
2024/01/25 04:06:11;;;;;;;11.98;7.43;;;9.70;99.90;;;;;;5007208;28;20131;-50
2024/01/25 04:08:37;;;;;;;11.80;6.40;;;9.80;99.90;;;;;;5023570;28;20079;-51
2024/01/25 04:11:03;;;;;;;11.52;6.53;;;9.80;99.90;;;;;;5092507;28;20032;-52
2024/01/25 04:13:28;;;;;;;12.05;7.30;;;9.80;99.90;;;;;;5057001;28;20040;-50
2024/01/25 04:15:54;;;;;;;48.38;22.13;;;9.90;99.90;;;;;;5092622;28;20397;-51
2024/01/25 04:18:20;;;;;;;12.60;8.27;;;10.00;99.90;;;;;;5092532;28;20032;-51
2024/01/25 04:20:46;;;;;;;11.40;7.32;;;10.00;99.90;;;;;;5056585;28;20042;-51
2024/01/25 04:23:12;;;;;;;9.45;6.15;;;10.00;99.90;;;;;;5056915;28;20036;-51
2024/01/25 04:25:38;;;;;;;9.23;5.90;;;10.00;99.90;;;;;;5056523;28;20043;-50
2024/01/25 04:28:04;;;;;;;9.07;4.60;;;;;;;;;;5092146;28;20032;-52
2024/01/25 04:30:31;;;;;;;12.23;5.70;;;9.90;99.90;;;;;;5056515;28;20043;-50
2024/01/25 04:32:57;;;;;;;8.40;5.32;;;9.90;99.90;;;;;;5092143;28;20044;-50
2024/01/25 04:35:23;;;;;;;7.95;5.13;;;9.80;99.90;;;;;;5084429;28;20105;-50
2024/01/25 04:37:48;;;;;;;9.35;4.70;;;9.80;99.90;;;;;;5019042;28;20047;-52
2024/01/25 04:40:14;;;;;;;9.27;5.05;;;9.80;99.90;;;;;;5071670;28;20028;-50
2024/01/25 04:42:40;;;;;;;9.20;5.93;;;9.70;99.90;;;;;;5071758;28;20027;-51
2024/01/25 04:45:06;;;;;;;8.32;5.45;;;9.70;99.90;;;;;;5071687;28;20060;-51
2024/01/25 04:47:32;;;;;;;10.93;6.03;;;9.80;99.90;;;;;;5035903;28;20059;-50
2024/01/25 04:49:58;;;;;;;9.63;5.65;;;;;;;;;;5071638;28;20028;-51
2024/01/25 04:52:24;;;;;;;7.82;5.38;;;10.90;99.90;;;;;;5071556;28;20043;-51
2024/01/25 04:54:50;;;;;;;8.82;5.25;;;10.00;99.90;;;;;;5069310;28;20041;-49
2024/01/25 04:57:16;;;;;;;8.50;5.63;;;10.00;99.90;;;;;;5069050;28;20039;-52
2024/01/25 04:59:41;;;;;;;7.75;5.25;;;10.10;99.90;;;;;;5069081;28;20056;-50
2024/01/25 05:02:07;;;;;;;9.40;5.82;;;10.00;99.90;;;;;;5071712;28;20031;-51
2024/01/25 05:04:34;;;;;;;9.18;5.40;;;10.00;99.90;;;;;;5071509;28;20028;-51
2024/01/25 05:07:00;;;;;;;8.18;4.90;;;10.00;99.90;;;;;;5071386;28;20032;-50
2024/01/25 05:09:26;;;;;;;8.63;5.35;;;10.00;99.90;;;;;;5071298;28;20028;-50
2024/01/25 05:11:51;;;;;;;10.20;5.93;;;10.00;99.90;;;;;;5070995;28;20035;-52
2024/01/25 05:14:17;;;;;;;8.45;5.00;;;9.90;99.90;;;;;;5071055;28;20036;-51
2024/01/25 05:16:43;;;;;;;8.25;5.05;;;9.90;99.90;;;;;;5056919;28;20068;-50
2024/01/25 05:19:08;;;;;;;8.45;5.32;;;9.90;99.90;;;;;;5051126;28;20108;-50
2024/01/25 05:21:35;;;;;;;7.57;4.45;;;;;;;;;;5044040;28;20043;-50
2024/01/25 05:24:00;;;;;;;8.88;5.18;;;10.00;99.90;;;;;;5058016;28;20059;-51
2024/01/25 05:26:26;;;;;;;6.97;5.05;;;;;;;;;;5060293;28;20028;-51
2024/01/25 05:28:53;;;;;;;9.05;6.65;;;;;;;;;;5057919;28;20044;-51
2024/01/25 05:31:19;;;;;;;9.23;5.82;;;10.10;99.90;;;;;;5058922;28;20124;-49
2024/01/25 05:33:45;;;;;;;6.60;4.75;;;;;;;;;;5065167;28;20459;-49
2024/01/25 05:36:12;;;;;;;8.55;5.05;;;10.30;99.90;;;;;;5087797;28;20098;-52
2024/01/25 05:38:37;;;;;;;9.25;5.43;;;10.30;99.90;;;;;;5052062;28;20045;-52
2024/01/25 05:41:03;;;;;;;10.75;5.85;;;;;;;;;;5087071;28;20039;-51
2024/01/25 05:43:29;;;;;;;8.68;4.40;;;10.40;99.90;;;;;;5041591;28;20044;-49
2024/01/25 05:45:55;;;;;;;7.90;4.57;;;10.30;99.90;;;;;;5027185;28;20040;-50
2024/01/25 05:48:21;;;;;;;7.88;4.13;;;10.30;99.90;;;;;;5079740;28;20031;-50
2024/01/25 05:50:46;;;;;;;8.77;4.50;;;10.30;99.90;;;;;;5081091;28;20039;-51
2024/01/25 05:53:13;;;;;;;7.55;3.85;;;;;;;;;;5082829;28;20120;-50
2024/01/25 05:55:39;;;;;;;7.95;3.88;;;;;;;;;;5076070;28;20017;-51
2024/01/25 05:58:05;;;;;;;9.88;4.70;;;;;;;;;;5080685;28;20028;-49
2024/01/25 06:00:31;;;;;;;14.02;5.28;;;;;;;;;;5078511;28;20096;-49
2024/01/25 06:02:57;;;;;;;8.15;4.68;;;;;;;;;;5080405;28;20032;-49
2024/01/25 06:05:23;;;;;;;7.80;4.53;;;10.90;99.90;;;;;;5090208;28;20035;-50
2024/01/25 06:07:50;;;;;;;8.27;4.50;;;10.60;99.10;;;;;;5079691;28;20491;-51
2024/01/25 06:10:16;;;;;;;10.48;5.47;;;10.50;99.30;;;;;;5070822;28;20174;-50
2024/01/25 06:12:41;;;;;;;13.13;6.28;;;10.50;99.10;;;;;;5075606;28;20177;-51
2024/01/25 06:15:08;;;;;;;7.57;4.38;;;10.60;98.90;;;;;;5052448;28;20476;-50
2024/01/25 06:17:33;;;;;;;194.57;79.30;;;10.60;99.10;;;;;;5037461;28;20479;-51
2024/01/25 06:19:59;;;;;;;40.95;21.00;;;10.60;98.40;;;;;;5078650;28;20041;-50
2024/01/25 06:22:25;;;;;;;10.63;7.43;;;;;;;;;;5028127;28;20039;-49
2024/01/25 06:24:51;;;;;;;10.98;7.50;;;10.60;99.90;;;;;;5080697;28;20025;-50
2024/01/25 06:27:17;;;;;;;14.98;8.57;;;10.40;98.40;;;;;;5084186;28;20055;-50
2024/01/25 06:29:43;;;;;;;18.05;10.60;;;10.30;99.00;;;;;;5043810;28;20107;-50
2024/01/25 06:32:10;;;;;;;13.68;10.38;;;10.10;99.30;;;;;;5080613;28;20119;-50
2024/01/25 06:34:36;;;;;;;11.85;7.68;;;10.00;99.60;;;;;;5078411;28;20024;-50
2024/01/25 06:37:01;;;;;;;15.95;10.68;;;10.00;99.70;;;;;;5080115;28;20025;-50
2024/01/25 06:39:27;;;;;;;15.73;10.13;;;10.10;99.80;;;;;;5029532;28;20040;-50
2024/01/25 06:41:53;;;;;;;32.45;22.00;;;10.10;99.70;;;;;;5045253;28;20118;-50
2024/01/25 06:44:19;;;;;;;13.25;7.20;;;10.00;99.60;;;;;;5029722;28;20040;-51
2024/01/25 06:46:44;;;;;;;10.98;7.10;;;9.90;99.90;;;;;;5090820;28;20024;-49
2024/01/25 06:49:10;;;;;;;24.35;18.42;;;9.90;99.90;;;;;;5089843;28;20040;-49
2024/01/25 06:51:36;;;;;;;25.80;21.00;;;9.60;99.90;;;;;;5038191;28;20029;-50
2024/01/25 06:54:01;;;;;;;25.02;17.02;;;10.00;99.90;;;;;;5005074;28;20051;-51
2024/01/25 06:56:27;;;;;;;17.23;10.25;;;10.20;99.90;;;;;;5090516;28;20387;-50
2024/01/25 06:58:53;;;;;;;19.27;10.52;;;10.10;99.90;;;;;;5090484;28;20028;-51
2024/01/25 07:01:22;;;;;;;17.23;9.88;;;10.10;99.90;;;;;;5094471;28;20031;-52
2024/01/25 07:03:50;;;;;;;17.42;10.05;;;10.20;99.90;;;;;;5094445;28;20472;-50
2024/01/25 07:06:17;;;;;;;26.95;17.60;;;10.20;99.90;;;;;;5094255;28;20036;-51
2024/01/25 07:08:43;;;;;;;36.35;22.35;;;10.10;99.90;;;;;;5094168;28;20039;-50
2024/01/25 07:11:09;;;;;;;39.08;25.08;;;10.20;99.90;;;;;;5088215;28;20024;-50
2024/01/25 07:46:44;;;;;;;72.05;46.85;;;10.20;99.90;;;;;;5313222;22;2026786;-48
2024/01/25 07:49:09;;;;;;;75.53;50.42;;;10.10;99.90;;;;;;5073296;28;20041;-48
2024/01/25 07:51:36;;;;;;;80.03;52.88;;;;;;;;;;5076455;28;20484;-48
2024/01/25 07:54:02;;;;;;;77.45;49.00;;;10.30;99.90;;;;;;5069855;28;20490;-48
2024/01/25 07:56:29;;;;;;;104.05;66.90;;;10.30;99.90;;;;;;5076080;28;20036;-48
2024/01/25 07:58:54;;;;;;;125.10;81.85;;;10.40;99.90;;;;;;5087340;28;20051;-49
2024/01/25 08:01:21;;;;;;;131.07;84.68;;;10.50;99.90;;;;;;5087558;28;20036;-49
2024/01/25 08:03:47;;;;;;;146.25;96.38;;;10.50;99.90;;;;;;5083606;28;20036;-48
2024/01/25 08:06:13;;;;;;;163.88;104.43;;;10.50;99.90;;;;;;5066941;28;20083;-48
2024/01/25 08:08:39;;;;;;;144.82;92.22;;;10.60;99.90;;;;;;5066951;28;20368;-48
2024/01/25 08:11:05;;;;;;;127.18;81.72;;;10.50;99.90;;;;;;5067249;28;20035;-48
2024/01/25 08:13:31;;;;;;;133.65;82.45;;;10.20;99.90;;;;;;5015426;28;20510;-48
2024/01/25 08:15:57;;;;;;;144.27;90.65;;;10.10;99.90;;;;;;5066817;28;20075;-49
2024/01/25 08:18:23;;;;;;;163.60;107.90;;;9.90;99.90;;;;;;5066987;28;20467;-49
2024/01/25 08:20:50;;;;;;;150.68;98.88;;;9.50;99.90;;;;;;5066621;28;20365;-48
2024/01/25 08:23:16;;;;;;;140.20;85.75;;;9.20;99.90;;;;;;5066663;28;20040;-48
2024/01/25 08:25:42;;;;;;;143.18;87.70;;;9.00;99.90;;;;;;5067508;28;20041;-49
2024/01/25 08:28:08;;;;;;;125.22;84.75;;;9.00;99.90;;;;;;5073812;28;20764;-48
2024/01/25 08:30:34;;;;;;;117.32;75.50;;;8.90;99.90;;;;;;5073744;28;20039;-50
2024/01/25 08:32:59;;;;;;;119.30;79.45;;;8.80;99.90;;;;;;5066925;28;20436;-49
2024/01/25 08:35:25;;;;;;;109.15;68.70;;;8.60;99.90;;;;;;5063379;28;20050;-49
2024/01/25 08:37:52;;;;;;;377.42;239.18;;;8.50;99.90;;;;;;5063061;28;20021;-50
2024/01/25 08:40:17;;;;;;;78.80;52.70;;;8.30;99.90;;;;;;5061499;28;20035;-49
2024/01/25 08:42:43;;;;;;;67.00;43.63;;;8.30;99.90;;;;;;5063214;28;20020;-50
2024/01/25 08:45:09;;;;;;;71.85;45.95;;;8.20;99.90;;;;;;5069080;28;20032;-48
2024/01/25 08:47:36;;;;;;;66.05;46.45;;;8.40;99.90;;;;;;5056560;28;20395;-49
2024/01/25 08:50:03;;;;;;;71.88;45.63;;;8.70;99.90;;;;;;5041531;28;20387;-50
2024/01/25 08:52:29;;;;;;;77.85;52.05;;;;;;;;;;5017958;28;20049;-49
2024/01/25 08:54:55;;;;;;;117.13;76.15;;;9.10;99.90;;;;;;5068559;28;20111;-50
2024/01/25 08:57:20;;;;;;;110.97;71.72;;;9.20;99.90;;;;;;5073031;28;20115;-48
2024/01/25 08:59:46;;;;;;;109.68;71.18;;;9.20;99.90;;;;;;5020890;28;20036;-49
2024/01/25 09:02:12;;;;;;;110.00;67.13;;;9.40;99.90;;;;;;5020818;28;20033;-50
2024/01/25 09:04:38;;;;;;;103.57;65.03;;;9.60;99.90;;;;;;5020357;28;20033;-49
2024/01/25 09:07:04;;;;;;;96.35;64.10;;;;;;;;;;5036946;28;20036;-50
2024/01/25 09:09:30;;;;;;;94.63;66.53;;;9.50;99.90;;;;;;5063954;28;20077;-48
2024/01/25 09:11:55;;;;;;;106.43;74.28;;;9.80;99.90;;;;;;5011223;28;20028;-49
2024/01/25 09:14:21;;;;;;;122.90;78.28;;;;;;;;;;5024858;28;20029;-48
2024/01/25 09:16:48;;;;;;;108.50;69.75;;;;;;;;;;5055147;28;20051;-50
2024/01/25 09:19:14;;;;;;;105.22;71.47;;;;;;;;;;5063121;28;20044;-50
2024/01/25 09:21:40;;;;;;;108.63;66.88;;;10.40;99.90;;;;;;5060858;28;20020;-48
2024/01/25 09:24:07;;;;;;;102.97;68.78;;;10.50;99.90;;;;;;5062269;28;20430;-49
2024/01/25 09:26:33;;;;;;;108.60;69.82;;;10.20;99.90;;;;;;5059871;28;20116;-50
2024/01/25 09:29:00;;;;;;;61.08;39.15;;;10.10;99.90;;;;;;5052068;28;20025;-49
2024/01/25 09:31:25;;;;;;;42.42;31.85;;;9.70;99.90;;;;;;4984113;28;20436;-48
2024/01/25 09:33:51;;;;;;;48.85;30.45;;;9.40;99.90;;;;;;5052091;28;20029;-48
2024/01/25 09:36:17;;;;;;;38.13;26.63;;;9.40;99.90;;;;;;5067159;28;20071;-49
2024/01/25 09:38:43;;;;;;;38.58;28.17;;;;;;;;;;5072066;28;20025;-50
2024/01/25 09:41:09;;;;;;;39.03;26.55;;;9.90;99.90;;;;;;5071546;28;20387;-51
2024/01/25 09:43:36;;;;;;;32.28;21.88;;;10.10;99.90;;;;;;5067224;28;20479;-49
2024/01/25 09:46:02;;;;;;;39.47;23.23;;;;;;;;;;5051837;28;20144;-48
2024/01/25 09:48:28;;;;;;;29.40;22.55;;;10.50;99.90;;;;;;5052043;28;20053;-49
2024/01/25 09:50:55;;;;;;;34.90;24.13;;;10.80;99.90;;;;;;5051561;28;20365;-50
2024/01/25 09:53:22;;;;;;;42.45;27.95;;;10.90;99.90;;;;;;5051725;28;20037;-49
2024/01/25 09:56:05;;;;;;;89.90;52.25;;;11.00;99.90;;;;;;5016251;28;20082;-51
2024/01/25 09:58:47;;;;;;;39.53;28.13;;;11.20;99.90;;;;;;5016249;28;20036;-50
2024/01/25 10:01:18;;;;;;;187.55;79.07;;;12.00;99.90;;;;;;5051042;28;20095;-48
2024/01/25 10:03:45;;;;;;;47.60;28.38;;;12.00;99.90;;;;;;5051537;28;20025;-50
2024/01/25 10:06:12;;;;;;;31.85;21.08;;;12.10;99.90;;;;;;5051689;28;20033;-50
2024/01/25 10:08:38;;;;;;;26.02;19.33;;;12.10;99.90;;;;;;5051515;28;20063;-49
2024/01/25 10:11:04;;;;;;;23.70;15.88;;;12.30;99.90;;;;;;5051463;28;20472;-50
2024/01/25 10:13:30;;;;;;;23.25;16.42;;;12.70;99.90;;;;;;5051363;28;20399;-49
2024/01/25 10:15:56;;;;;;;19.15;13.85;;;;;;;;;;5051636;28;20028;-50
2024/01/25 10:18:23;;;;;;;22.35;16.55;;;;;;;;;;5051304;28;20115;-49
2024/01/25 10:20:49;;;;;;;20.55;11.88;;;;;;;;;;5051250;28;20032;-49
2024/01/25 10:23:16;;;;;;;23.20;13.00;;;16.50;99.90;;;;;;5016043;28;20045;-51
2024/01/25 10:25:41;;;;;;;24.42;13.00;;;17.10;95.30;;;;;;5051730;28;20431;-50
2024/01/25 10:28:07;;;;;;;17.00;12.55;;;;;;;;;;5051140;28;20021;-48
2024/01/25 10:30:35;;;;;;;49.30;22.05;;;17.00;99.90;;;;;;5051193;28;20040;-48
2024/01/25 10:33:01;;;;;;;82.78;33.38;;;17.00;96.90;;;;;;5051097;28;20043;-51
2024/01/25 10:35:28;;;;;;;54.20;26.02;;;;;;;;;;5050549;28;20112;-49
2024/01/25 10:37:55;;;;;;;28.67;18.25;;;;;;;;;;5031490;28;20044;-49
2024/01/25 10:40:22;;;;;;;21.60;13.65;;;;;;;;;;5016520;28;20634;-50
2024/01/25 10:42:48;;;;;;;51.47;24.67;;;;;;;;;;5018706;28;20145;-50
2024/01/25 10:45:15;;;;;;;19.98;13.68;;;;;;;;;;5013510;28;20034;-51
2024/01/25 10:47:41;;;;;;;90.65;41.10;;;;;;;;;;5008257;28;20050;-49
2024/01/25 10:50:13;;;;;;;16.30;12.80;;;16.60;92.70;;;;;;5013185;28;20072;-49
2024/01/25 10:52:40;;;;;;;;;;;16.60;92.70;;;;;;5000768;28;20044;-50
2024/01/25 10:55:07;;;;;;;21.20;13.27;;;16.70;92.50;;;;;;5023922;28;20366;-51
2024/01/25 10:57:40;;;;;;;34.70;18.65;;;;;;;;;;5006646;28;20069;-52
2024/01/25 11:00:10;;;;;;;89.63;42.78;;;17.30;92.30;;;;;;5011376;28;20060;-50
2024/01/25 11:02:39;;;;;;;47.95;27.42;;;17.70;92.60;;;;;;5019102;28;20030;-50
2024/01/25 11:05:13;;;;;;;38.22;23.48;;;18.60;99.90;;;;;;5017578;28;20079;-50
2024/01/25 11:07:46;;;;;;;17.42;13.13;;;18.40;91.80;;;;;;5016299;28;20492;-53
2024/01/25 11:10:19;;;;;;;69.63;31.92;;;18.60;91.30;;;;;;5016570;28;20029;-52
2024/01/25 11:12:55;;;;;;;95.32;47.30;;;;;;;;;;5050655;28;20040;-52
2024/01/25 11:15:35;;;;;;;96.30;44.35;;;17.60;99.90;;;;;;5048957;28;20072;-52
2024/01/25 11:18:03;;;;;;;39.30;23.85;;;17.30;91.80;;;;;;5049212;28;20036;-52
2024/01/25 11:20:31;;;;;;;47.45;25.25;;;17.60;92.80;;;;;;5050845;28;20047;-52
2024/01/25 11:23:04;;;;;;;41.67;25.50;;;17.50;91.60;;;;;;5050528;28;20532;-52
2024/01/25 11:25:37;;;;;;;22.85;15.57;;;17.30;91.80;;;;;;5048202;28;20052;-50
2024/01/25 11:28:05;;;;;;;21.13;13.48;;;17.50;91.40;;;;;;5050593;28;20028;-51
2024/01/25 11:30:33;;;;;;;26.02;17.55;;;17.50;91.00;;;;;;5048904;28;20025;-51
2024/01/25 11:32:59;;;;;;;26.90;17.20;;;17.40;99.90;;;;;;5050466;28;20029;-51
2024/01/25 11:35:26;;;;;;;19.17;14.35;;;17.70;91.80;;;;;;5050327;28;20066;-51
2024/01/25 11:37:52;;;;;;;22.20;15.68;;;17.90;91.00;;;;;;5049062;28;20056;-52
2024/01/25 11:40:19;;;;;;;23.20;16.08;;;;;;;;;;5050451;28;20033;-51
2024/01/25 11:42:47;;;;;;;21.77;14.70;;;18.40;99.70;;;;;;5050348;28;20065;-52
2024/01/25 11:45:14;;;;;;;25.00;20.10;;;19.00;90.30;;;;;;5050579;28;20022;-50
2024/01/25 11:47:40;;;;;;;24.05;18.98;;;;;;;;;;5061976;28;20423;-50
2024/01/25 11:50:07;;;;;;;23.38;16.88;;;;;;;;;;5034765;28;20110;-50
2024/01/25 11:52:34;;;;;;;61.20;32.05;;;;;;;;;;5034376;28;20049;-50
2024/01/25 11:55:03;;;;;;;38.30;25.02;;;;;;;;;;5070204;28;20033;-50
2024/01/25 11:57:43;;;;;;;26.17;15.63;;;19.60;88.90;;;;;;5018259;28;20033;-49
2024/01/25 12:00:12;;;;;;;30.55;20.45;;;19.80;89.70;;;;;;5072383;28;20027;-49
2024/01/25 12:02:39;;;;;;;20.80;14.23;;;19.10;88.90;;;;;;5021744;28;20803;-49
2024/01/25 12:05:05;;;;;;;19.42;14.02;;;19.50;88.90;;;;;;5073880;28;20052;-49
2024/01/25 12:07:31;;;;;;;25.95;16.73;;;19.40;88.90;;;;;;5073589;28;20388;-49
2024/01/25 12:10:08;;;;;;;18.98;13.73;;;19.40;89.30;;;;;;5074327;28;20036;-49
2024/01/25 12:12:38;;;;;;;27.63;14.25;;;19.60;89.60;;;;;;5021178;28;20040;-49
2024/01/25 12:15:06;;;;;;;21.10;12.73;;;19.60;88.00;;;;;;5073603;28;20090;-49
2024/01/25 12:17:33;;;;;;;31.52;22.73;;;19.10;88.40;;;;;;5021411;28;20075;-49
2024/01/25 12:20:00;;;;;;;14.40;10.02;;;19.40;89.10;;;;;;5073764;28;20036;-49
2024/01/25 12:22:29;;;;;;;25.48;17.20;;;;;;;;;;5073450;28;20020;-49
2024/01/25 12:24:56;;;;;;;16.25;10.88;;;19.50;99.90;;;;;;5073379;28;20032;-49
2024/01/25 12:27:23;;;;;;;35.15;14.95;;;;;;;;;;5037605;28;20044;-49
2024/01/25 12:29:50;;;;;;;12.93;9.68;;;;;;;;;;5073294;28;20028;-49
2024/01/25 12:32:17;;;;;;;24.48;15.45;;;;;;;;;;5073174;28;20028;-50
2024/01/25 12:34:43;;;;;;;21.60;13.10;;;;;;;;;;5073662;28;20028;-49
2024/01/25 12:37:10;;;;;;;18.75;13.68;;;;;;;;;;5073300;28;20226;-50
2024/01/25 12:39:36;;;;;;;17.48;11.05;;;;;;;;;;5073112;28;20036;-51
2024/01/25 12:42:01;;;;;;;11.50;9.30;;;18.80;86.00;;;;;;5073261;28;20020;-50
2024/01/25 12:44:27;;;;;;;14.27;9.27;;;19.30;86.60;;;;;;5037472;28;20039;-49
2024/01/25 12:46:53;;;;;;;10.65;9.18;;;19.30;86.40;;;;;;5066104;28;20168;-48
2024/01/25 12:49:21;;;;;;;16.63;9.68;;;19.30;86.60;;;;;;5010233;28;20037;-49
2024/01/25 12:51:47;;;;;;;10.43;6.45;;;18.80;86.50;;;;;;5061911;28;20036;-49
2024/01/25 12:54:13;;;;;;;19.58;9.75;;;18.30;86.40;;;;;;5044413;28;20036;-50
2024/01/25 12:56:38;;;;;;;17.13;10.38;;;18.00;86.50;;;;;;5072822;28;20539;-49
2024/01/25 12:59:05;;;;;;;13.93;8.55;;;17.60;87.50;;;;;;5072888;28;20032;-50
2024/01/25 13:01:31;;;;;;;11.57;7.22;;;18.10;87.90;;;;;;5021071;28;20057;-49
2024/01/25 13:03:56;;;;;;;15.40;9.68;;;17.50;88.20;;;;;;5072600;28;20543;-49
2024/01/25 13:06:22;;;;;;;11.27;7.50;;;17.30;88.90;;;;;;5072671;28;20115;-49
2024/01/25 13:08:48;;;;;;;17.48;7.70;;;17.80;88.90;;;;;;4980663;28;20041;-50
2024/01/25 13:11:14;;;;;;;11.88;7.68;;;17.80;88.10;;;;;;5030202;28;20144;-49
2024/01/25 13:13:40;;;;;;;13.48;9.10;;;17.90;87.80;;;;;;5028769;28;20133;-49
2024/01/25 13:16:06;;;;;;;19.00;10.13;;;18.30;86.80;;;;;;4993557;28;20045;-50
2024/01/25 13:18:32;;;;;;;19.33;7.43;;;17.70;88.10;;;;;;4961372;28;20038;-50
2024/01/25 13:20:57;;;;;;;34.78;11.00;;;18.00;86.50;;;;;;4978069;28;20045;-49
2024/01/25 13:23:23;;;;;;;12.40;6.95;;;18.30;86.40;;;;;;5014498;28;20036;-50
2024/01/25 13:25:49;;;;;;;14.07;6.93;;;18.90;86.40;;;;;;5020020;28;20059;-49
2024/01/25 13:28:15;;;;;;;15.60;8.07;;;;;;;;;;5024109;28;20033;-49
2024/01/25 13:30:41;;;;;;;15.00;6.63;;;19.00;86.40;;;;;;4962215;28;20042;-49